This is the latest recevied weather packets stored in our database for station/object WR7DW-3. If no packets are shown the sender has not sent any weather packets the latest 10 day(s).
| Time | Temp. | Humidity | Pressure | Rain* | Wind** | Luminosity | Snow |
|---|---|---|---|---|---|---|---|
| 1777755588 | 10° C | 40% | 1009.3 hPa | 0 mm | - | - | - |
| 1777754686 | 10° C | 46% | 1009.5 hPa | 0 mm | - | - | - |
| 1777753787 | 9.44° C | 49% | 1009.6 hPa | 0 mm | - | - | - |
| 1777752887 | 8.89° C | 52% | 1009.7 hPa | 0 mm | - | - | - |
| 1777751087 | 8.33° C | 55% | 1009.8 hPa | 0 mm | - | - | - |
| 1777750187 | 8.33° C | 55% | 1009.8 hPa | 0 mm | - | - | - |
| 1777749287 | 7.78° C | 57% | 1010 hPa | 0 mm | - | - | - |
| 1777748387 | 8.33° C | 60% | 1010.1 hPa | 0 mm | - | - | - |
| 1777747487 | 7.78° C | 62% | 1010.3 hPa | 0 mm | - | - | - |
| 1777745687 | 6.67° C | 64% | 1010.6 hPa | 0 mm | - | - | - |
| 1777744787 | 6.67° C | 66% | 1010.7 hPa | 0 mm | - | - | - |
| 1777743887 | 6.67° C | 68% | 1010.8 hPa | 0 mm | - | - | - |
| 1777742987 | 6.11° C | 68% | 1010.8 hPa | 0 mm | - | - | - |
| 1777742087 | 7.78° C | 61% | 1010.8 hPa | 0 mm | - | - | - |
| 1777741187 | 7.78° C | 60% | 1010.9 hPa | 0 mm | - | - | - |
| 1777740287 | 6.67° C | 62% | 1010.9 hPa | 0 mm | - | - | - |
| 1777739387 | 6.11° C | 65% | 1011 hPa | 0 mm | - | - | - |
| 1777738487 | 5.56° C | 67% | 1010.8 hPa | 0 mm | - | - | - |
| 1777737587 | 5° C | 68% | 1011 hPa | 0 mm | - | - | - |
| 1777736687 | 5° C | 68% | 1010.9 hPa | 0 mm | - | - | - |
| 1777735787 | 4.44° C | 69% | 1010.7 hPa | 0 mm | - | - | - |
| 1777734887 | 4.44° C | 69% | 1010.8 hPa | 0 mm | - | - | - |
| 1777733987 | 4.44° C | 70% | 1010.4 hPa | 0 mm | - | - | - |
| 1777733087 | 3.89° C | 71% | 1010.5 hPa | 0 mm | - | - | - |
| 1777732187 | 3.89° C | 71% | 1010.4 hPa | 0 mm | - | - | - |
* Rain latest hour (hover to see other rain measurements)
** Current wind speed in m/s (hover to see current wind gust speed)